Time;durP1;ratioP1;P1;durP2;ratioP2;P2;SDS_P1;SDS_P2;PMS_P1;PMS_P2;Temp;Humidity;BMP_temperature;BMP_pressure;BME280_temperature;BME280_humidity;BME280_pressure;Samples;Min_cycle;Max_cycle;Signal;HPM_P1;HPM_P2
2021/07/16 00:00:20;;;;;;;31.97;15.70;;;16.50;99.90;;;;;;5092794;28;20294;-76
2021/07/16 00:02:49;;;;;;;41.73;16.33;;;16.60;99.90;;;;;;5092976;28;20211;-76
2021/07/16 00:05:16;;;;;;;28.10;16.10;;;16.70;99.90;;;;;;5092220;28;20198;-76
2021/07/16 00:07:44;;;;;;;37.13;16.17;;;16.70;99.90;;;;;;5092805;28;20276;-75
2021/07/16 00:10:15;;;;;;;28.27;15.83;;;16.70;99.90;;;;;;5092542;28;20310;-76
2021/07/16 00:12:42;;;;;;;30.50;16.07;;;16.80;99.90;;;;;;5094624;28;20237;-76
2021/07/16 00:15:12;;;;;;;37.87;15.20;;;16.80;99.90;;;;;;5092555;28;20209;-76
2021/07/16 00:17:39;;;;;;;27.90;15.17;;;16.70;99.90;;;;;;5090635;28;20202;-76
2021/07/16 00:20:07;;;;;;;38.00;16.20;;;16.40;99.90;;;;;;5092438;28;20201;-76
2021/07/16 00:22:34;;;;;;;28.63;15.57;;;16.20;99.90;;;;;;5092762;28;20672;-76
2021/07/16 00:25:01;;;;;;;28.60;15.10;;;16.10;99.90;;;;;;5094269;28;20207;-75
2021/07/16 00:27:29;;;;;;;29.33;15.20;;;16.00;99.90;;;;;;5092344;28;20213;-75
2021/07/16 00:29:56;;;;;;;26.87;14.50;;;16.00;99.90;;;;;;5093147;28;20202;-75
2021/07/16 00:32:23;;;;;;;34.60;15.57;;;15.90;99.90;;;;;;5092001;28;20286;-75
2021/07/16 00:34:50;;;;;;;26.87;15.10;;;15.90;99.90;;;;;;5091180;28;20213;-76
2021/07/16 00:37:17;;;;;;;28.37;15.20;;;15.90;99.90;;;;;;5092612;28;20565;-75
2021/07/16 00:39:44;;;;;;;32.53;14.87;;;15.90;99.90;;;;;;5093313;28;20652;-76
2021/07/16 00:42:10;;;;;;;24.50;14.33;;;15.90;99.90;;;;;;5092572;28;20221;-76
2021/07/16 00:44:39;;;;;;;30.47;14.63;;;15.80;99.90;;;;;;5092525;28;20209;-76
2021/07/16 00:47:06;;;;;;;34.33;14.60;;;15.80;99.90;;;;;;5092829;28;20286;-76
2021/07/16 00:49:33;;;;;;;27.00;15.23;;;15.80;99.90;;;;;;5092362;28;20547;-76
2021/07/16 00:52:00;;;;;;;27.57;14.80;;;15.70;99.90;;;;;;5092261;28;20200;-76
2021/07/16 00:54:28;;;;;;;23.90;15.03;;;15.70;99.90;;;;;;5093397;28;20212;-76
2021/07/16 00:56:55;;;;;;;32.43;15.80;;;15.70;99.90;;;;;;5092684;28;20203;-76
2021/07/16 00:59:22;;;;;;;24.90;14.67;;;15.80;99.90;;;;;;5099892;28;20198;-76
2021/07/16 01:01:51;;;;;;;23.93;14.57;;;15.80;99.90;;;;;;5099134;28;20215;-76
2021/07/16 01:04:18;;;;;;;25.80;15.10;;;15.80;99.90;;;;;;5092600;28;20209;-77
2021/07/16 01:06:45;;;;;;;24.50;14.57;;;15.80;99.90;;;;;;5092759;28;20252;-76
2021/07/16 01:09:12;;;;;;;24.93;15.17;;;15.80;99.90;;;;;;5092590;28;20201;-76
2021/07/16 01:11:39;;;;;;;25.97;14.03;;;15.80;99.90;;;;;;5094373;28;20246;-76
2021/07/16 01:14:06;;;;;;;25.80;14.53;;;15.90;99.90;;;;;;5096743;28;20202;-76
2021/07/16 01:16:33;;;;;;;23.70;13.77;;;15.90;99.90;;;;;;5092600;28;20226;-76
2021/07/16 01:19:02;;;;;;;26.27;14.63;;;15.90;99.90;;;;;;5092977;28;20732;-76
2021/07/16 01:21:33;;;;;;;20.70;13.13;;;16.00;99.90;;;;;;5092624;28;20219;-76
2021/07/16 01:24:03;;;;;;;17.37;12.87;;;16.20;99.90;;;;;;5101607;28;20208;-76
2021/07/16 01:26:31;;;;;;;26.93;13.70;;;16.30;99.90;;;;;;5079698;28;20229;-76
2021/07/16 01:29:02;;;;;;;25.23;13.50;;;16.50;99.90;;;;;;5092320;28;20217;-76
2021/07/16 01:31:29;;;;;;;22.27;13.77;;;16.60;99.90;;;;;;5092158;28;20198;-75
2021/07/16 01:33:56;;;;;;;24.53;13.77;;;16.60;99.90;;;;;;5092260;28;20203;-75
2021/07/16 01:36:23;;;;;;;25.47;14.07;;;16.80;99.90;;;;;;5092100;28;20599;-75
2021/07/16 01:38:50;;;;;;;31.47;14.70;;;16.70;99.90;;;;;;5092415;28;20207;-75
2021/07/16 01:41:18;;;;;;;22.90;13.97;;;16.70;99.90;;;;;;5091572;28;20583;-75
2021/07/16 01:43:45;;;;;;;22.57;13.50;;;16.80;99.90;;;;;;5092395;28;20217;-76
2021/07/16 01:46:12;;;;;;;25.60;14.60;;;16.80;99.90;;;;;;5092218;28;20230;-76
2021/07/16 01:48:39;;;;;;;27.53;14.30;;;16.80;99.90;;;;;;5092077;28;20281;-75
2021/07/16 01:51:05;;;;;;;22.87;14.03;;;16.80;99.90;;;;;;5092030;28;20286;-75
2021/07/16 01:53:33;;;;;;;27.63;13.67;;;16.80;99.90;;;;;;5091680;28;20290;-75
2021/07/16 01:56:00;;;;;;;22.77;13.50;;;16.70;99.90;;;;;;5093185;28;20571;-75
2021/07/16 01:58:28;;;;;;;24.23;13.57;;;16.70;99.90;;;;;;5095485;28;20229;-75
2021/07/16 02:00:55;;;;;;;22.93;13.93;;;16.70;99.90;;;;;;5095781;28;20253;-76
2021/07/16 02:03:21;;;;;;;27.47;14.80;;;16.70;99.90;;;;;;5095409;28;20290;-76
2021/07/16 02:05:49;;;;;;;27.93;14.27;;;16.70;99.90;;;;;;5095133;28;20660;-75
2021/07/16 02:08:17;;;;;;;30.53;13.70;;;16.50;99.90;;;;;;5097105;28;20199;-75
2021/07/16 02:10:46;;;;;;;26.93;13.40;;;16.50;99.90;;;;;;5096070;28;20203;-75
2021/07/16 02:13:13;;;;;;;28.20;13.13;;;16.50;99.90;;;;;;5095957;28;20547;-75
2021/07/16 02:15:44;;;;;;;27.63;14.00;;;16.50;99.90;;;;;;5095849;28;20203;-75
2021/07/16 02:18:11;;;;;;;26.03;13.37;;;16.50;99.90;;;;;;5095816;28;20203;-75
2021/07/16 02:20:40;;;;;;;36.93;14.30;;;16.50;99.90;;;;;;5095021;28;20207;-75
2021/07/16 02:23:08;;;;;;;35.20;14.27;;;16.40;99.90;;;;;;5095459;28;20226;-75
2021/07/16 02:25:36;;;;;;;29.20;14.03;;;16.40;99.90;;;;;;5097535;28;20539;-76
2021/07/16 02:28:06;;;;;;;32.47;14.57;;;16.40;99.90;;;;;;5095281;28;20269;-75
2021/07/16 02:30:33;;;;;;;34.43;14.33;;;16.40;99.90;;;;;;5095034;28;20203;-75
2021/07/16 02:33:04;;;;;;;37.17;14.70;;;16.30;99.90;;;;;;5095579;28;20199;-76
2021/07/16 02:35:31;;;;;;;39.33;14.73;;;16.20;99.90;;;;;;5095203;28;20221;-76
2021/07/16 02:37:59;;;;;;;38.83;15.30;;;16.20;99.90;;;;;;5095336;28;20277;-76
2021/07/16 02:40:27;;;;;;;31.63;15.70;;;16.20;99.90;;;;;;5094816;28;20770;-75
2021/07/16 02:42:54;;;;;;;38.97;15.20;;;16.00;99.90;;;;;;5095567;28;20279;-75
2021/07/16 02:45:22;;;;;;;35.53;15.40;;;16.00;99.90;;;;;;5080572;28;20207;-75
2021/07/16 02:47:49;;;;;;;38.93;15.10;;;16.00;99.90;;;;;;5095348;28;20290;-75
2021/07/16 02:50:21;;;;;;;40.83;15.47;;;15.90;99.90;;;;;;5094896;28;20280;-75
2021/07/16 02:52:48;;;;;;;38.47;14.10;;;16.00;99.90;;;;;;5095089;28;20245;-75
2021/07/16 02:55:15;;;;;;;37.87;15.30;;;16.00;99.90;;;;;;5094401;28;20664;-75
2021/07/16 02:57:42;;;;;;;47.23;14.43;;;16.10;99.90;;;;;;5103971;28;20297;-75
2021/07/16 03:00:11;;;;;;;32.10;14.80;;;16.00;99.90;;;;;;5098388;28;20202;-75
2021/07/16 03:02:40;;;;;;;40.83;15.93;;;16.10;99.90;;;;;;5094900;28;20225;-76
2021/07/16 03:05:08;;;;;;;36.77;15.37;;;16.00;99.90;;;;;;5094434;28;20293;-76
2021/07/16 03:07:37;;;;;;;39.57;15.50;;;16.00;99.90;;;;;;5100722;28;20199;-76
2021/07/16 03:10:06;;;;;;;34.37;15.63;;;15.90;99.90;;;;;;5100816;28;20210;-75
2021/07/16 03:12:33;;;;;;;37.87;14.73;;;15.90;99.90;;;;;;5094508;28;20195;-76
2021/07/16 03:15:00;;;;;;;33.07;14.47;;;15.90;99.90;;;;;;5102521;28;20202;-75
2021/07/16 03:17:26;;;;;;;39.77;14.80;;;15.90;99.90;;;;;;5096035;28;20206;-76
2021/07/16 03:19:53;;;;;;;40.30;14.40;;;15.80;99.90;;;;;;5094584;28;20289;-76
2021/07/16 03:22:20;;;;;;;35.27;14.17;;;15.80;99.90;;;;;;5094588;28;20225;-76
2021/07/16 03:24:48;;;;;;;41.70;15.10;;;15.80;99.90;;;;;;5099693;28;20336;-76
2021/07/16 03:27:15;;;;;;;38.03;14.47;;;15.80;99.90;;;;;;5099889;28;20210;-76
2021/07/16 03:29:42;;;;;;;33.57;14.93;;;15.80;99.90;;;;;;5107150;28;20206;-76
2021/07/16 03:32:08;;;;;;;36.90;14.77;;;15.80;99.90;;;;;;5093752;28;20649;-76
2021/07/16 03:34:35;;;;;;;39.57;14.83;;;15.80;99.90;;;;;;5097453;28;20202;-76
2021/07/16 03:37:03;;;;;;;33.77;13.93;;;15.80;99.90;;;;;;5102357;28;20298;-75
2021/07/16 03:39:29;;;;;;;37.83;14.27;;;15.80;99.90;;;;;;5094305;28;20195;-76
2021/07/16 03:41:58;;;;;;;36.03;14.07;;;15.70;99.90;;;;;;5095195;28;20228;-76
2021/07/16 03:44:25;;;;;;;31.70;14.20;;;15.70;99.90;;;;;;5093885;28;20234;-76
2021/07/16 03:46:52;;;;;;;31.70;14.23;;;15.70;99.90;;;;;;5093960;28;20286;-75
2021/07/16 03:49:19;;;;;;;30.50;14.13;;;15.70;99.90;;;;;;5094413;28;20203;-76
2021/07/16 03:51:45;;;;;;;44.07;14.83;;;15.80;99.90;;;;;;5105762;28;20565;-76
2021/07/16 03:54:12;;;;;;;35.37;13.47;;;15.80;99.90;;;;;;5094269;28;20210;-76
2021/07/16 03:56:39;;;;;;;34.57;14.20;;;15.80;99.90;;;;;;5093377;28;20674;-76
2021/07/16 03:59:07;;;;;;;29.87;13.90;;;15.80;99.90;;;;;;5093617;28;20199;-76
2021/07/16 04:01:34;;;;;;;28.77;13.17;;;15.70;99.90;;;;;;5104277;28;20198;-76
2021/07/16 04:04:01;;;;;;;31.57;13.60;;;15.80;99.90;;;;;;5093768;28;20203;-76
2021/07/16 04:06:28;;;;;;;31.10;13.17;;;15.80;99.90;;;;;;5093893;28;20290;-76
2021/07/16 04:09:10;;;;;;;27.20;12.77;;;15.80;99.90;;;;;;5094110;28;20285;-76
2021/07/16 04:11:37;;;;;;;29.40;12.50;;;15.80;99.90;;;;;;5094603;28;20207;-76
2021/07/16 04:14:05;;;;;;;29.23;11.90;;;15.80;99.90;;;;;;5093899;28;20293;-76
2021/07/16 04:16:33;;;;;;;29.30;12.87;;;15.70;99.90;;;;;;5093462;28;20251;-76
2021/07/16 04:19:00;;;;;;;29.97;12.33;;;15.70;99.90;;;;;;5092866;28;20203;-76
2021/07/16 04:21:27;;;;;;;28.63;11.77;;;15.70;99.90;;;;;;5095583;28;20555;-76
2021/07/16 04:23:54;;;;;;;22.70;11.67;;;15.90;99.90;;;;;;5093624;28;20281;-76
2021/07/16 04:26:21;;;;;;;34.57;12.50;;;15.90;99.90;;;;;;5093430;28;20201;-76
2021/07/16 04:28:47;;;;;;;25.97;11.37;;;16.00;99.90;;;;;;5093527;28;20222;-77
2021/07/16 04:31:16;;;;;;;28.37;11.63;;;16.10;99.90;;;;;;5087433;28;20309;-76
2021/07/16 04:33:44;;;;;;;24.47;11.17;;;16.00;99.90;;;;;;5093331;28;20207;-76
2021/07/16 04:36:11;;;;;;;27.47;11.93;;;16.10;99.90;;;;;;5092850;28;20226;-76
2021/07/16 04:38:40;;;;;;;25.57;11.17;;;16.00;99.90;;;;;;5093331;28;20209;-77
2021/07/16 04:41:09;;;;;;;33.10;11.93;;;15.90;99.90;;;;;;5098220;28;20536;-76
2021/07/16 04:43:36;;;;;;;28.03;11.93;;;15.80;99.90;;;;;;5097056;28;20218;-76
2021/07/16 04:46:03;;;;;;;23.63;11.20;;;15.80;99.90;;;;;;5110395;28;20210;-76
2021/07/16 04:48:30;;;;;;;28.80;11.33;;;15.80;99.90;;;;;;5095697;28;20199;-76
2021/07/16 04:50:58;;;;;;;21.77;10.37;;;15.90;99.90;;;;;;5092714;28;20203;-76
2021/07/16 04:53:25;;;;;;;20.50;10.67;;;15.90;99.90;;;;;;5092475;28;20226;-76
2021/07/16 04:55:51;;;;;;;20.60;10.73;;;16.00;99.90;;;;;;5094503;28;20212;-76
2021/07/16 04:58:18;;;;;;;26.00;10.87;;;15.90;99.90;;;;;;5092634;28;20589;-76
2021/07/16 05:00:45;;;;;;;25.47;10.67;;;16.00;99.90;;;;;;5092597;28;20206;-76
2021/07/16 05:03:12;;;;;;;20.43;10.17;;;16.00;99.90;;;;;;5092919;28;20702;-76
2021/07/16 05:05:39;;;;;;;21.30;10.00;;;16.10;99.90;;;;;;5092362;28;20195;-76
2021/07/16 05:08:07;;;;;;;24.47;10.03;;;16.10;99.90;;;;;;5093104;28;20755;-76
2021/07/16 05:10:34;;;;;;;21.00;9.97;;;16.10;99.90;;;;;;5092989;28;20285;-76
2021/07/16 05:13:01;;;;;;;20.10;10.27;;;16.10;99.90;;;;;;5095296;28;20243;-76
2021/07/16 05:15:28;;;;;;;20.40;9.80;;;16.20;99.90;;;;;;5092234;28;20583;-76
2021/07/16 05:17:54;;;;;;;21.63;9.50;;;16.20;99.90;;;;;;5092012;28;20294;-76
2021/07/16 05:20:21;;;;;;;23.30;10.20;;;16.20;99.90;;;;;;5088654;28;20207;-76
2021/07/16 05:22:55;;;;;;;18.30;9.60;;;16.30;99.90;;;;;;5094669;28;20586;-77
2021/07/16 05:25:23;;;;;;;23.93;9.70;;;16.30;99.90;;;;;;5091967;28;20212;-77
2021/07/16 05:27:50;;;;;;;21.97;10.43;;;16.10;99.90;;;;;;5091491;28;20207;-77
2021/07/16 05:30:17;;;;;;;25.43;10.23;;;16.10;99.90;;;;;;5092027;28;20381;-77
2021/07/16 05:32:44;;;;;;;17.90;8.80;;;16.20;99.90;;;;;;5099482;28;20207;-76
2021/07/16 05:35:12;;;;;;;23.80;10.13;;;16.30;99.90;;;;;;5095585;28;20199;-77
2021/07/16 05:37:38;;;;;;;23.53;10.17;;;16.30;99.90;;;;;;5094708;28;20195;-76
2021/07/16 05:40:06;;;;;;;23.63;9.23;;;16.50;99.90;;;;;;5089431;28;20210;-76
2021/07/16 05:42:35;;;;;;;20.53;9.10;;;16.60;99.90;;;;;;5095551;28;20218;-77
2021/07/16 05:45:02;;;;;;;25.00;9.73;;;16.70;99.90;;;;;;5094954;28;20195;-77
2021/07/16 05:47:29;;;;;;;26.10;9.03;;;16.90;99.90;;;;;;5096111;28;20289;-77
2021/07/16 05:49:55;;;;;;;23.37;9.43;;;17.00;99.90;;;;;;5096939;28;20206;-78
2021/07/16 05:52:24;;;;;;;19.53;8.63;;;17.20;99.90;;;;;;5094245;28;20627;-77
2021/07/16 05:54:51;;;;;;;18.90;8.43;;;17.20;99.90;;;;;;5096645;28;20199;-77
2021/07/16 05:57:18;;;;;;;20.83;8.47;;;17.10;99.90;;;;;;5095415;28;20205;-77
2021/07/16 05:59:46;;;;;;;17.63;8.00;;;17.10;99.90;;;;;;5097701;28;20211;-77
2021/07/16 06:02:13;;;;;;;16.17;7.83;;;17.20;99.90;;;;;;5095839;28;20289;-77
2021/07/16 06:04:40;;;;;;;19.67;8.17;;;17.20;99.90;;;;;;5100727;28;20218;-77
2021/07/16 06:07:07;;;;;;;17.97;8.23;;;17.30;99.90;;;;;;5098917;28;20307;-77
2021/07/16 06:09:34;;;;;;;22.17;7.80;;;17.30;99.90;;;;;;5095677;28;20226;-77
2021/07/16 06:12:00;;;;;;;17.60;8.63;;;17.10;99.90;;;;;;5094272;28;20225;-77
2021/07/16 06:14:29;;;;;;;17.83;8.00;;;16.80;99.90;;;;;;5094365;28;20217;-76
2021/07/16 06:16:58;;;;;;;19.10;7.93;;;16.90;99.90;;;;;;5095183;28;20655;-76
2021/07/16 06:19:25;;;;;;;26.03;8.67;;;17.10;99.90;;;;;;5096187;28;20207;-76
2021/07/16 06:21:51;;;;;;;18.10;8.10;;;17.00;99.90;;;;;;5097573;28;20202;-76
2021/07/16 06:24:18;;;;;;;18.10;8.83;;;17.30;99.90;;;;;;5090538;28;20313;-76
2021/07/16 06:26:45;;;;;;;17.53;8.57;;;17.20;99.90;;;;;;5092079;28;20719;-76
2021/07/16 06:29:12;;;;;;;18.90;8.47;;;17.40;99.90;;;;;;5093122;28;20233;-76
2021/07/16 06:31:39;;;;;;;22.67;8.27;;;17.60;99.90;;;;;;5093580;28;20207;-76
2021/07/16 06:34:07;;;;;;;17.57;7.63;;;17.60;99.90;;;;;;5095336;28;20290;-75
2021/07/16 06:36:34;;;;;;;22.00;7.97;;;17.90;99.90;;;;;;5093193;28;20282;-75
2021/07/16 06:39:01;;;;;;;14.00;7.07;;;17.90;99.90;;;;;;5093948;28;20191;-76
2021/07/16 06:41:28;;;;;;;23.13;7.73;;;18.10;99.90;;;;;;5089969;28;20298;-76
2021/07/16 06:43:55;;;;;;;18.37;7.73;;;18.30;99.90;;;;;;5091271;28;20330;-76
2021/07/16 06:46:26;;;;;;;18.47;7.30;;;18.50;99.90;;;;;;5084573;28;20205;-78
2021/07/16 06:48:54;;;;;;;19.67;7.80;;;18.50;99.90;;;;;;5083786;28;20587;-77
2021/07/16 06:51:22;;;;;;;19.47;7.00;;;18.70;99.90;;;;;;5091261;28;20294;-76
2021/07/16 06:53:49;;;;;;;15.93;6.97;;;18.40;99.90;;;;;;5089056;28;20652;-76
2021/07/16 06:56:16;;;;;;;20.43;7.70;;;18.20;99.90;;;;;;5100276;28;20203;-76
2021/07/16 06:58:43;;;;;;;18.70;7.53;;;18.50;99.90;;;;;;5096285;28;20293;-76
2021/07/16 07:01:09;;;;;;;20.80;7.27;;;18.70;99.90;;;;;;5100927;28;20247;-76
2021/07/16 07:03:36;;;;;;;21.70;7.07;;;18.90;99.90;;;;;;5099695;28;20305;-76
2021/07/16 07:06:04;;;;;;;18.77;7.47;;;19.30;99.90;;;;;;5094926;28;20724;-76
2021/07/16 07:08:33;;;;;;;10.60;6.87;;;19.60;99.90;;;;;;5089132;28;22457;-75
2021/07/16 07:10:59;;;;;;;16.57;7.30;;;19.80;99.90;;;;;;5082999;28;20294;-76
2021/07/16 07:13:26;;;;;;;17.10;7.27;;;19.90;99.90;;;;;;5091193;28;20222;-76
2021/07/16 07:15:53;;;;;;;20.33;7.20;;;19.80;99.90;;;;;;5093873;28;20200;-76
2021/07/16 07:18:20;;;;;;;16.13;7.00;;;19.60;99.90;;;;;;5093970;28;20201;-77
2021/07/16 07:20:47;;;;;;;17.93;7.03;;;19.50;99.90;;;;;;5093962;28;20310;-77
2021/07/16 07:23:14;;;;;;;16.13;6.57;;;19.50;99.90;;;;;;5088936;28;20320;-77
2021/07/16 07:25:42;;;;;;;18.67;6.17;;;19.40;99.90;;;;;;5094160;28;20644;-77
2021/07/16 07:28:11;;;;;;;17.20;6.13;;;19.30;99.90;;;;;;5099540;28;20616;-77
2021/07/16 07:30:37;;;;;;;15.17;6.23;;;19.00;99.90;;;;;;5093369;28;20585;-76
2021/07/16 07:33:04;;;;;;;17.57;6.23;;;18.40;99.90;;;;;;5093799;28;20277;-77
2021/07/16 07:35:33;;;;;;;15.53;5.87;;;18.70;99.90;;;;;;5092919;28;20279;-76
2021/07/16 07:38:00;;;;;;;17.73;5.53;;;18.80;99.90;;;;;;5101703;28;20664;-76
2021/07/16 07:40:27;;;;;;;16.33;5.33;;;18.70;99.90;;;;;;5098076;28;20278;-77
2021/07/16 07:42:55;;;;;;;16.97;6.20;;;19.20;99.90;;;;;;5092967;28;20222;-77
2021/07/16 07:45:22;;;;;;;14.17;5.60;;;19.70;99.90;;;;;;5096003;28;20207;-77
2021/07/16 07:47:49;;;;;;;17.00;5.53;;;19.50;99.90;;;;;;5092754;28;20285;-76
2021/07/16 07:50:17;;;;;;;17.30;6.27;;;19.70;99.90;;;;;;5093451;28;20203;-76
2021/07/16 07:52:45;;;;;;;16.67;6.40;;;19.10;99.90;;;;;;5094408;28;20599;-76
2021/07/16 07:55:13;;;;;;;16.40;5.77;;;18.80;99.90;;;;;;5094216;28;20286;-76
2021/07/16 07:57:41;;;;;;;17.20;6.10;;;18.60;99.90;;;;;;5088495;28;20589;-76
2021/07/16 08:00:12;;;;;;;19.97;6.83;;;19.00;99.90;;;;;;5094748;28;20607;-77
2021/07/16 08:02:39;;;;;;;15.47;6.00;;;19.10;99.90;;;;;;5089362;28;20655;-77
2021/07/16 08:05:06;;;;;;;22.10;5.63;;;19.30;99.90;;;;;;5091802;28;20672;-78
2021/07/16 08:07:33;;;;;;;13.97;5.70;;;19.00;99.90;;;;;;5093844;28;20199;-77
2021/07/16 08:10:00;;;;;;;16.93;5.87;;;18.90;99.90;;;;;;5088906;28;20281;-77
2021/07/16 08:12:27;;;;;;;15.17;5.77;;;19.20;99.90;;;;;;5098620;28;20645;-77
2021/07/16 08:14:54;;;;;;;14.17;5.80;;;18.80;99.90;;;;;;5099696;28;20281;-77
2021/07/16 08:17:22;;;;;;;13.20;6.10;;;18.80;99.90;;;;;;5092136;28;20667;-77
2021/07/16 08:19:49;;;;;;;20.17;5.87;;;18.70;99.90;;;;;;5076089;28;20278;-76
2021/07/16 08:22:16;;;;;;;16.93;5.87;;;18.40;99.90;;;;;;5081520;28;20230;-77
2021/07/16 08:24:43;;;;;;;16.27;6.03;;;18.50;99.90;;;;;;5081362;28;20233;-77
2021/07/16 08:27:10;;;;;;;17.47;5.97;;;18.50;99.90;;;;;;5086990;28;20202;-77
2021/07/16 08:29:37;;;;;;;19.87;6.23;;;18.40;99.90;;;;;;5102134;28;20281;-76
2021/07/16 08:32:04;;;;;;;18.37;5.30;;;18.20;99.90;;;;;;5101510;28;20198;-76
2021/07/16 08:34:33;;;;;;;21.40;6.17;;;18.20;99.90;;;;;;5101706;28;20186;-76
2021/07/16 08:37:00;;;;;;;16.83;5.63;;;18.40;99.90;;;;;;5092113;28;20270;-76
2021/07/16 08:39:27;;;;;;;20.27;6.17;;;18.30;99.90;;;;;;5085847;28;20297;-77
2021/07/16 08:41:54;;;;;;;17.93;6.20;;;18.20;99.90;;;;;;5087692;28;20278;-77
2021/07/16 08:44:21;;;;;;;15.93;6.00;;;18.20;99.90;;;;;;5087731;28;20699;-76
2021/07/16 08:46:48;;;;;;;20.00;6.33;;;18.10;99.90;;;;;;5100022;28;20203;-76
2021/07/16 08:49:16;;;;;;;16.47;6.63;;;18.20;99.90;;;;;;5091676;28;20567;-77
2021/07/16 08:51:45;;;;;;;17.60;5.77;;;18.50;99.90;;;;;;5092922;28;20191;-76
2021/07/16 08:54:16;;;;;;;13.17;6.00;;;18.50;99.90;;;;;;5103840;28;20560;-76
2021/07/16 08:56:43;;;;;;;14.53;6.47;;;18.40;99.90;;;;;;5092068;28;20225;-77
2021/07/16 08:59:10;;;;;;;15.53;5.97;;;18.20;99.90;;;;;;5087436;28;20225;-76
2021/07/16 09:01:39;;;;;;;13.03;6.10;;;18.20;99.90;;;;;;5091806;28;20277;-76
2021/07/16 09:04:07;;;;;;;14.70;5.57;;;18.30;99.90;;;;;;5086704;28;20219;-77
2021/07/16 09:06:50;;;;;;;17.83;6.53;;;18.50;99.90;;;;;;5085681;28;20538;-76
2021/07/16 09:09:20;;;;;;;19.70;6.03;;;18.60;99.90;;;;;;5099381;28;20370;-77
2021/07/16 09:11:49;;;;;;;16.87;5.63;;;18.70;99.90;;;;;;5082355;28;20186;-77
2021/07/16 09:14:21;;;;;;;14.33;6.37;;;18.60;99.90;;;;;;5098509;28;20551;-76
2021/07/16 09:16:57;;;;;;;14.00;6.10;;;18.70;99.90;;;;;;5102170;28;20209;-78
2021/07/16 09:19:36;;;;;;;16.57;6.07;;;19.30;99.90;;;;;;5097488;28;20230;-77
2021/07/16 09:22:10;;;;;;;24.57;5.90;;;19.50;99.90;;;;;;5098772;28;20289;-77
2021/07/16 09:24:38;;;;;;;17.80;6.10;;;20.20;99.90;;;;;;5104196;28;20226;-76
2021/07/16 09:27:34;;;;;;;15.73;5.40;;;20.50;99.90;;;;;;5106007;28;20218;-77
2021/07/16 09:30:12;;;;;;;16.90;5.57;;;20.50;99.90;;;;;;5096359;28;20222;-76
2021/07/16 09:32:41;;;;;;;17.80;5.83;;;20.30;99.90;;;;;;5107956;28;20190;-76
2021/07/16 09:35:09;;;;;;;14.20;5.40;;;20.50;99.90;;;;;;5101373;28;20191;-77
2021/07/16 09:37:54;;;;;;;12.73;5.30;;;20.80;99.90;;;;;;5103671;28;20273;-78
2021/07/16 09:40:24;;;;;;;15.55;5.28;;;21.20;99.90;;;;;;5101311;28;20198;-76
2021/07/16 09:42:58;;;;;;;17.92;5.32;;;21.20;99.90;;;;;;5103390;28;20202;-77
2021/07/16 09:45:25;;;;;;;22.38;5.90;;;21.30;99.90;;;;;;5104557;28;20210;-78
2021/07/16 09:47:52;;;;;;;14.60;5.15;;;21.20;99.90;;;;;;5095165;28;20286;-77
2021/07/16 09:50:24;;;;;;;17.50;5.03;;;20.90;99.90;;;;;;5096267;28;20536;-77
2021/07/16 09:53:13;;;;;;;19.77;5.50;;;20.70;99.90;;;;;;5098801;28;20191;-78
2021/07/16 09:55:42;;;;;;;21.63;5.23;;;20.10;99.90;;;;;;5098745;28;20251;-77
2021/07/16 09:58:24;;;;;;;18.10;4.90;;;19.60;99.90;;;;;;5103379;28;20233;-78
2021/07/16 10:00:52;;;;;;;21.27;5.77;;;19.30;99.90;;;;;;5087508;28;20202;-85
2021/07/16 10:03:20;;;;;;;22.10;4.77;;;19.30;99.90;;;;;;5085242;28;20207;-77
2021/07/16 10:05:49;;;;;;;17.67;4.53;;;19.30;99.90;;;;;;5089470;28;20191;-77
2021/07/16 10:08:18;;;;;;;18.10;4.90;;;19.30;99.90;;;;;;5098509;28;20226;-77
2021/07/16 10:10:47;;;;;;;16.70;4.73;;;19.10;99.90;;;;;;5098266;28;20240;-76
2021/07/16 10:13:14;;;;;;;16.63;5.20;;;19.00;99.90;;;;;;5098811;28;20195;-77
2021/07/16 10:15:43;;;;;;;20.20;5.00;;;18.80;99.90;;;;;;5103659;28;20205;-77
2021/07/16 10:18:10;;;;;;;20.10;4.80;;;18.80;99.90;;;;;;5081177;28;20191;-77
2021/07/16 10:20:38;;;;;;;20.83;5.10;;;18.60;99.90;;;;;;5084339;28;20287;-77
2021/07/16 10:23:06;;;;;;;24.73;5.37;;;18.60;99.90;;;;;;5089728;28;20285;-77
2021/07/16 10:25:35;;;;;;;18.23;5.20;;;18.60;99.90;;;;;;5093211;28;20234;-77
2021/07/16 10:28:01;;;;;;;22.17;5.03;;;18.50;99.90;;;;;;5080476;28;20297;-77
2021/07/16 10:30:34;;;;;;;20.00;5.50;;;18.30;99.90;;;;;;5085761;28;20202;-77
2021/07/16 10:33:01;;;;;;;22.90;5.30;;;18.40;99.90;;;;;;5095352;28;20197;-77
2021/07/16 10:35:29;;;;;;;22.70;4.90;;;18.50;99.90;;;;;;5102300;28;20197;-77
2021/07/16 10:37:59;;;;;;;20.30;5.13;;;18.60;99.90;;;;;;5094769;28;20190;-77
2021/07/16 10:40:43;;;;;;;15.57;4.63;;;18.80;99.90;;;;;;5094838;28;20226;-77
2021/07/16 10:43:39;;;;;;;22.50;5.20;;;19.30;99.90;;;;;;5080164;28;20299;-77
2021/07/16 10:46:34;;;;;;;16.50;5.07;;;19.60;99.90;;;;;;5086432;28;20194;-77
2021/07/16 10:49:01;;;;;;;15.80;4.67;;;19.90;99.90;;;;;;5089028;28;20645;-76
2021/07/16 10:51:33;;;;;;;17.13;5.13;;;20.10;99.90;;;;;;5097961;28;20191;-77
2021/07/16 10:54:01;;;;;;;20.23;4.77;;;20.30;99.90;;;;;;5089364;28;20283;-77
2021/07/16 10:56:53;;;;;;;17.77;5.90;;;20.30;99.90;;;;;;5091200;28;20306;-77
2021/07/16 10:59:46;;;;;;;23.17;5.23;;;20.70;99.90;;;;;;5079297;28;20206;-77
2021/07/16 11:02:45;;;;;;;20.40;5.10;;;20.80;99.90;;;;;;5095136;28;20195;-77
2021/07/16 11:06:01;;;;;;;26.67;6.33;;;20.40;99.90;;;;;;5080906;28;20242;-77
2021/07/16 11:08:52;;;;;;;16.30;4.80;;;20.20;99.90;;;;;;5036307;28;20599;-77
2021/07/16 11:11:21;;;;;;;18.43;5.00;;;20.20;99.90;;;;;;5091247;28;20244;-76
2021/07/16 11:13:50;;;;;;;14.70;4.63;;;20.50;99.90;;;;;;5093299;28;20207;-77
2021/07/16 11:16:44;;;;;;;18.97;5.30;;;20.80;99.90;;;;;;5093917;28;20205;-77
2021/07/16 11:19:22;;;;;;;20.80;4.65;;;21.00;99.90;;;;;;5046333;28;20267;-77
2021/07/16 11:22:04;;;;;;;17.65;4.60;;;21.20;99.90;;;;;;5091802;28;20201;-77
2021/07/16 11:24:33;;;;;;;19.48;5.25;;;21.00;99.90;;;;;;5097530;28;20293;-77
2021/07/16 11:27:03;;;;;;;16.83;4.57;;;20.80;99.90;;;;;;5093141;28;20674;-77
2021/07/16 11:29:34;;;;;;;17.08;4.53;;;20.30;99.90;;;;;;5092989;28;20289;-77
2021/07/16 11:32:03;;;;;;;28.37;4.93;;;20.00;99.90;;;;;;5102017;28;20647;-77
2021/07/16 11:34:30;;;;;;;20.00;4.97;;;20.10;99.90;;;;;;5093506;28;20199;-77
2021/07/16 11:36:57;;;;;;;18.77;6.30;;;20.30;99.90;;;;;;5095174;28;20536;-77
2021/07/16 11:39:28;;;;;;;23.97;5.83;;;20.20;99.90;;;;;;5085923;28;20664;-77
2021/07/16 11:41:57;;;;;;;14.43;4.97;;;19.70;99.90;;;;;;5095146;28;20694;-76
2021/07/16 11:44:28;;;;;;;21.50;5.70;;;19.70;99.90;;;;;;5092991;28;20225;-77
2021/07/16 11:46:57;;;;;;;18.30;5.37;;;19.80;99.90;;;;;;5111542;28;20743;-77
2021/07/16 11:49:25;;;;;;;19.33;5.30;;;20.10;99.90;;;;;;5085850;28;20199;-77
2021/07/16 11:51:59;;;;;;;16.20;5.60;;;20.30;99.90;;;;;;5099752;28;20206;-78
2021/07/16 11:54:27;;;;;;;17.93;5.30;;;20.50;99.90;;;;;;5089644;28;20202;-77
2021/07/16 11:57:00;;;;;;;17.30;5.87;;;20.70;99.90;;;;;;5097153;28;20252;-76
2021/07/16 11:59:28;;;;;;;14.80;5.20;;;20.70;99.90;;;;;;5092495;28;20233;-77
2021/07/16 12:02:07;;;;;;;20.37;5.70;;;20.70;99.90;;;;;;5089625;28;20252;-76
2021/07/16 12:04:34;;;;;;;21.17;5.87;;;20.60;99.90;;;;;;5095481;28;20222;-76
2021/07/16 12:07:01;;;;;;;15.43;6.40;;;20.60;99.90;;;;;;5092844;28;20208;-77
2021/07/16 12:09:35;;;;;;;19.57;5.67;;;20.60;99.90;;;;;;5091898;28;20325;-77
2021/07/16 12:12:05;;;;;;;22.30;5.75;;;20.50;99.90;;;;;;5078316;28;20227;-77
2021/07/16 12:14:45;;;;;;;16.38;5.38;;;20.90;99.90;;;;;;5091078;28;20656;-77
2021/07/16 12:17:14;;;;;;;19.73;5.18;;;21.30;99.90;;;;;;5092142;28;20281;-78
2021/07/16 12:19:42;;;;;;;19.20;5.60;;;22.10;99.90;;;;;;5095794;28;20281;-75
2021/07/16 12:22:13;;;;;;;18.50;4.65;;;22.60;99.90;;;;;;5087913;28;20632;-74
2021/07/16 12:24:41;;;;;;;16.88;5.30;;;22.60;99.90;;;;;;5088901;28;20273;-75
2021/07/16 12:27:10;;;;;;;14.68;5.00;;;22.40;99.90;;;;;;5089952;28;20207;-77
2021/07/16 12:29:37;;;;;;;20.13;5.40;;;21.50;99.90;;;;;;5092334;28;20230;-77
2021/07/16 12:32:05;;;;;;;15.88;5.65;;;21.10;99.90;;;;;;5090207;28;20278;-75
2021/07/16 12:34:35;;;;;;;18.42;6.18;;;21.00;99.90;;;;;;5089728;28;20282;-74
2021/07/16 12:37:15;;;;;;;22.67;6.03;;;20.60;99.90;;;;;;5092343;28;20203;-77
2021/07/16 12:39:44;;;;;;;24.10;5.90;;;20.50;99.90;;;;;;5090968;28;20230;-75
2021/07/16 12:42:13;;;;;;;21.33;6.20;;;20.70;99.90;;;;;;5089240;28;20290;-77